sensor_id;sensor_type;location;lat;lon;timestamp;temperature;humidity
55083;DHT22;40978;52.850;6.506;2023-10-31T00:00:39;11.00;99.90
55083;DHT22;40978;52.850;6.506;2023-10-31T00:03:04;11.00;99.90
55083;DHT22;40978;52.850;6.506;2023-10-31T00:05:30;11.00;99.90
55083;DHT22;40978;52.850;6.506;2023-10-31T00:07:56;11.00;99.90
55083;DHT22;40978;52.850;6.506;2023-10-31T00:10:21;11.00;99.90
55083;DHT22;40978;52.850;6.506;2023-10-31T00:12:47;11.00;99.90
55083;DHT22;40978;52.850;6.506;2023-10-31T00:15:13;11.00;99.90
55083;DHT22;40978;52.850;6.506;2023-10-31T00:17:39;11.00;99.90
55083;DHT22;40978;52.850;6.506;2023-10-31T00:20:05;11.00;99.90
55083;DHT22;40978;52.850;6.506;2023-10-31T00:22:31;11.00;99.90
55083;DHT22;40978;52.850;6.506;2023-10-31T00:24:57;11.00;99.90
55083;DHT22;40978;52.850;6.506;2023-10-31T00:27:23;10.90;99.90
55083;DHT22;40978;52.850;6.506;2023-10-31T00:29:48;10.90;99.90
55083;DHT22;40978;52.850;6.506;2023-10-31T00:32:14;10.80;99.90
55083;DHT22;40978;52.850;6.506;2023-10-31T00:34:40;10.70;99.90
55083;DHT22;40978;52.850;6.506;2023-10-31T00:37:06;10.80;99.90
55083;DHT22;40978;52.850;6.506;2023-10-31T00:39:31;10.70;99.90
55083;DHT22;40978;52.850;6.506;2023-10-31T00:41:59;10.70;99.90
55083;DHT22;40978;52.850;6.506;2023-10-31T00:44:25;10.70;99.90
55083;DHT22;40978;52.850;6.506;2023-10-31T00:46:50;10.60;99.90
55083;DHT22;40978;52.850;6.506;2023-10-31T00:49:16;10.60;99.90
55083;DHT22;40978;52.850;6.506;2023-10-31T00:51:42;10.60;99.90
55083;DHT22;40978;52.850;6.506;2023-10-31T00:54:07;10.60;99.90
55083;DHT22;40978;52.850;6.506;2023-10-31T00:56:33;10.50;99.90
55083;DHT22;40978;52.850;6.506;2023-10-31T00:59:00;10.40;99.90
55083;DHT22;40978;52.850;6.506;2023-10-31T01:01:25;10.40;99.90
55083;DHT22;40978;52.850;6.506;2023-10-31T01:03:51;10.40;99.90
55083;DHT22;40978;52.850;6.506;2023-10-31T01:06:17;10.30;99.90
55083;DHT22;40978;52.850;6.506;2023-10-31T01:08:43;10.30;99.90
55083;DHT22;40978;52.850;6.506;2023-10-31T01:11:08;10.30;99.90
55083;DHT22;40978;52.850;6.506;2023-10-31T01:13:34;10.20;99.90
55083;DHT22;40978;52.850;6.506;2023-10-31T01:16:00;10.20;99.90
55083;DHT22;40978;52.850;6.506;2023-10-31T01:18:25;10.20;99.90
55083;DHT22;40978;52.850;6.506;2023-10-31T01:20:51;10.10;99.90
55083;DHT22;40978;52.850;6.506;2023-10-31T01:23:17;10.00;99.90
55083;DHT22;40978;52.850;6.506;2023-10-31T01:25:43;10.00;99.90
55083;DHT22;40978;52.850;6.506;2023-10-31T01:28:08;9.90;99.90
55083;DHT22;40978;52.850;6.506;2023-10-31T01:30:34;9.90;99.90
55083;DHT22;40978;52.850;6.506;2023-10-31T01:33:00;9.80;99.90
55083;DHT22;40978;52.850;6.506;2023-10-31T01:35:25;9.80;99.90
55083;DHT22;40978;52.850;6.506;2023-10-31T01:37:51;9.80;99.90
55083;DHT22;40978;52.850;6.506;2023-10-31T01:40:17;9.70;99.90
55083;DHT22;40978;52.850;6.506;2023-10-31T01:42:42;9.70;99.90
55083;DHT22;40978;52.850;6.506;2023-10-31T01:45:08;9.60;99.90
55083;DHT22;40978;52.850;6.506;2023-10-31T01:47:34;9.60;99.90
55083;DHT22;40978;52.850;6.506;2023-10-31T01:50:00;9.60;99.90
55083;DHT22;40978;52.850;6.506;2023-10-31T01:52:26;9.60;99.90
55083;DHT22;40978;52.850;6.506;2023-10-31T01:54:52;9.60;99.90
55083;DHT22;40978;52.850;6.506;2023-10-31T01:57:21;9.60;99.90
55083;DHT22;40978;52.850;6.506;2023-10-31T01:59:47;9.60;99.90
55083;DHT22;40978;52.850;6.506;2023-10-31T02:02:13;9.60;99.90
55083;DHT22;40978;52.850;6.506;2023-10-31T02:04:39;9.60;99.90
55083;DHT22;40978;52.850;6.506;2023-10-31T02:07:05;9.60;99.90
55083;DHT22;40978;52.850;6.506;2023-10-31T02:09:32;9.60;99.90
55083;DHT22;40978;52.850;6.506;2023-10-31T02:11:58;9.60;99.90
55083;DHT22;40978;52.850;6.506;2023-10-31T02:14:24;9.60;99.90
55083;DHT22;40978;52.850;6.506;2023-10-31T02:16:50;9.70;99.90
55083;DHT22;40978;52.850;6.506;2023-10-31T02:19:20;9.70;99.90
55083;DHT22;40978;52.850;6.506;2023-10-31T02:21:46;9.70;99.90
55083;DHT22;40978;52.850;6.506;2023-10-31T02:24:11;9.70;99.90
55083;DHT22;40978;52.850;6.506;2023-10-31T02:26:37;9.70;99.90
55083;DHT22;40978;52.850;6.506;2023-10-31T02:29:03;9.60;99.90
55083;DHT22;40978;52.850;6.506;2023-10-31T02:31:30;9.60;99.90
55083;DHT22;40978;52.850;6.506;2023-10-31T02:33:56;9.60;99.90
55083;DHT22;40978;52.850;6.506;2023-10-31T02:36:22;9.60;99.90
55083;DHT22;40978;52.850;6.506;2023-10-31T02:38:48;9.60;99.90
55083;DHT22;40978;52.850;6.506;2023-10-31T02:41:14;9.60;99.90
55083;DHT22;40978;52.850;6.506;2023-10-31T02:43:41;9.60;99.90
55083;DHT22;40978;52.850;6.506;2023-10-31T02:46:07;9.60;99.90
55083;DHT22;40978;52.850;6.506;2023-10-31T02:48:33;9.60;99.90
55083;DHT22;40978;52.850;6.506;2023-10-31T02:51:05;9.60;99.90
55083;DHT22;40978;52.850;6.506;2023-10-31T02:53:31;9.60;99.90
55083;DHT22;40978;52.850;6.506;2023-10-31T02:55:56;9.60;99.90
55083;DHT22;40978;52.850;6.506;2023-10-31T02:58:22;9.60;99.90
55083;DHT22;40978;52.850;6.506;2023-10-31T03:00:48;9.70;99.90
55083;DHT22;40978;52.850;6.506;2023-10-31T03:03:14;9.70;99.90
55083;DHT22;40978;52.850;6.506;2023-10-31T03:05:39;9.70;99.90
55083;DHT22;40978;52.850;6.506;2023-10-31T03:08:05;9.70;99.90
55083;DHT22;40978;52.850;6.506;2023-10-31T03:10:32;9.70;99.90
55083;DHT22;40978;52.850;6.506;2023-10-31T03:12:58;9.70;99.90
55083;DHT22;40978;52.850;6.506;2023-10-31T03:15:24;9.70;99.90
55083;DHT22;40978;52.850;6.506;2023-10-31T03:17:50;9.70;99.90
55083;DHT22;40978;52.850;6.506;2023-10-31T03:20:16;9.80;99.90
55083;DHT22;40978;52.850;6.506;2023-10-31T03:22:41;9.80;99.90
55083;DHT22;40978;52.850;6.506;2023-10-31T03:25:07;9.80;99.90
55083;DHT22;40978;52.850;6.506;2023-10-31T03:27:33;9.80;99.90
55083;DHT22;40978;52.850;6.506;2023-10-31T03:29:59;9.80;99.90
55083;DHT22;40978;52.850;6.506;2023-10-31T03:32:24;9.80;99.90
55083;DHT22;40978;52.850;6.506;2023-10-31T03:34:50;9.80;99.90
55083;DHT22;40978;52.850;6.506;2023-10-31T03:37:16;9.70;99.90
55083;DHT22;40978;52.850;6.506;2023-10-31T03:39:41;9.80;99.90
55083;DHT22;40978;52.850;6.506;2023-10-31T03:42:07;9.80;99.90
55083;DHT22;40978;52.850;6.506;2023-10-31T03:44:33;9.80;99.90
55083;DHT22;40978;52.850;6.506;2023-10-31T03:46:59;9.70;99.90
55083;DHT22;40978;52.850;6.506;2023-10-31T03:49:24;9.80;99.90
55083;DHT22;40978;52.850;6.506;2023-10-31T03:51:50;9.80;99.90
55083;DHT22;40978;52.850;6.506;2023-10-31T03:54:17;9.80;99.90
55083;DHT22;40978;52.850;6.506;2023-10-31T03:56:43;9.90;99.90
55083;DHT22;40978;52.850;6.506;2023-10-31T03:59:09;9.80;99.90
55083;DHT22;40978;52.850;6.506;2023-10-31T04:01:35;9.90;99.90
55083;DHT22;40978;52.850;6.506;2023-10-31T04:04:01;10.00;99.90
55083;DHT22;40978;52.850;6.506;2023-10-31T04:06:27;9.90;99.90
55083;DHT22;40978;52.850;6.506;2023-10-31T04:08:52;9.90;99.90
55083;DHT22;40978;52.850;6.506;2023-10-31T04:11:18;9.90;99.90
55083;DHT22;40978;52.850;6.506;2023-10-31T04:13:44;9.90;99.90
55083;DHT22;40978;52.850;6.506;2023-10-31T04:16:09;10.00;99.90
55083;DHT22;40978;52.850;6.506;2023-10-31T04:18:36;9.90;99.90
55083;DHT22;40978;52.850;6.506;2023-10-31T04:21:02;10.00;99.90
55083;DHT22;40978;52.850;6.506;2023-10-31T04:23:27;10.00;99.90
55083;DHT22;40978;52.850;6.506;2023-10-31T04:25:53;10.00;99.90
55083;DHT22;40978;52.850;6.506;2023-10-31T04:28:19;9.90;99.90
55083;DHT22;40978;52.850;6.506;2023-10-31T04:30:45;9.90;99.90
55083;DHT22;40978;52.850;6.506;2023-10-31T04:33:10;9.90;99.90
55083;DHT22;40978;52.850;6.506;2023-10-31T04:35:36;10.00;99.90
55083;DHT22;40978;52.850;6.506;2023-10-31T04:38:02;10.00;99.90
55083;DHT22;40978;52.850;6.506;2023-10-31T04:40:27;10.00;99.90
55083;DHT22;40978;52.850;6.506;2023-10-31T04:42:54;10.00;99.90
55083;DHT22;40978;52.850;6.506;2023-10-31T04:45:20;10.00;99.90
55083;DHT22;40978;52.850;6.506;2023-10-31T04:47:45;10.00;99.90
55083;DHT22;40978;52.850;6.506;2023-10-31T04:50:11;10.00;99.90
55083;DHT22;40978;52.850;6.506;2023-10-31T04:52:37;9.90;99.90
55083;DHT22;40978;52.850;6.506;2023-10-31T04:55:03;10.00;99.90
55083;DHT22;40978;52.850;6.506;2023-10-31T04:57:29;9.90;99.90
55083;DHT22;40978;52.850;6.506;2023-10-31T04:59:54;9.90;99.90
55083;DHT22;40978;52.850;6.506;2023-10-31T05:02:22;9.90;99.90
55083;DHT22;40978;52.850;6.506;2023-10-31T05:04:48;9.90;99.90
55083;DHT22;40978;52.850;6.506;2023-10-31T05:07:17;9.80;99.90
55083;DHT22;40978;52.850;6.506;2023-10-31T05:09:42;9.90;99.90
55083;DHT22;40978;52.850;6.506;2023-10-31T05:12:08;9.90;99.90
55083;DHT22;40978;52.850;6.506;2023-10-31T05:14:35;9.80;99.90
55083;DHT22;40978;52.850;6.506;2023-10-31T05:17:01;9.80;99.90
55083;DHT22;40978;52.850;6.506;2023-10-31T05:19:26;9.80;99.90
55083;DHT22;40978;52.850;6.506;2023-10-31T05:21:52;9.80;99.90
55083;DHT22;40978;52.850;6.506;2023-10-31T05:24:18;9.80;99.90
55083;DHT22;40978;52.850;6.506;2023-10-31T05:26:44;9.80;99.90
55083;DHT22;40978;52.850;6.506;2023-10-31T05:29:11;9.80;99.90
55083;DHT22;40978;52.850;6.506;2023-10-31T05:31:37;9.70;99.90
55083;DHT22;40978;52.850;6.506;2023-10-31T05:34:02;9.80;99.90
55083;DHT22;40978;52.850;6.506;2023-10-31T05:36:31;9.80;99.90
55083;DHT22;40978;52.850;6.506;2023-10-31T05:38:56;9.80;99.90
55083;DHT22;40978;52.850;6.506;2023-10-31T05:41:22;9.90;99.90
55083;DHT22;40978;52.850;6.506;2023-10-31T05:43:48;9.80;99.90
55083;DHT22;40978;52.850;6.506;2023-10-31T05:46:14;9.80;99.90
55083;DHT22;40978;52.850;6.506;2023-10-31T05:48:41;9.80;99.90
55083;DHT22;40978;52.850;6.506;2023-10-31T05:51:14;9.80;99.90
55083;DHT22;40978;52.850;6.506;2023-10-31T05:53:41;9.70;99.90
55083;DHT22;40978;52.850;6.506;2023-10-31T05:56:07;9.80;99.90
55083;DHT22;40978;52.850;6.506;2023-10-31T05:58:33;9.80;99.90
55083;DHT22;40978;52.850;6.506;2023-10-31T06:00:59;9.80;99.90
55083;DHT22;40978;52.850;6.506;2023-10-31T06:03:25;9.80;99.90
55083;DHT22;40978;52.850;6.506;2023-10-31T06:05:50;9.80;99.90
55083;DHT22;40978;52.850;6.506;2023-10-31T06:08:16;9.80;99.90
55083;DHT22;40978;52.850;6.506;2023-10-31T06:10:42;9.80;99.90
55083;DHT22;40978;52.850;6.506;2023-10-31T06:13:08;9.80;99.90
55083;DHT22;40978;52.850;6.506;2023-10-31T06:15:33;9.70;99.90
55083;DHT22;40978;52.850;6.506;2023-10-31T06:17:59;9.80;99.90
55083;DHT22;40978;52.850;6.506;2023-10-31T06:20:25;9.80;99.90
55083;DHT22;40978;52.850;6.506;2023-10-31T06:22:51;9.70;99.90
55083;DHT22;40978;52.850;6.506;2023-10-31T06:25:17;9.80;99.90
55083;DHT22;40978;52.850;6.506;2023-10-31T06:27:42;9.80;99.90
55083;DHT22;40978;52.850;6.506;2023-10-31T06:30:08;9.80;99.90
55083;DHT22;40978;52.850;6.506;2023-10-31T06:32:34;9.80;99.90
55083;DHT22;40978;52.850;6.506;2023-10-31T06:35:00;9.80;99.90
55083;DHT22;40978;52.850;6.506;2023-10-31T06:37:26;9.80;99.90
55083;DHT22;40978;52.850;6.506;2023-10-31T06:39:51;9.80;99.90
55083;DHT22;40978;52.850;6.506;2023-10-31T06:42:17;9.80;99.90
55083;DHT22;40978;52.850;6.506;2023-10-31T06:44:43;9.90;99.90
55083;DHT22;40978;52.850;6.506;2023-10-31T06:47:08;9.80;99.90
55083;DHT22;40978;52.850;6.506;2023-10-31T06:49:34;9.90;99.90
55083;DHT22;40978;52.850;6.506;2023-10-31T06:52:00;9.80;99.90
55083;DHT22;40978;52.850;6.506;2023-10-31T06:54:26;9.90;99.90
55083;DHT22;40978;52.850;6.506;2023-10-31T06:56:52;9.90;99.90
55083;DHT22;40978;52.850;6.506;2023-10-31T06:59:17;9.90;99.90
55083;DHT22;40978;52.850;6.506;2023-10-31T07:01:43;9.90;99.90
55083;DHT22;40978;52.850;6.506;2023-10-31T07:04:10;10.00;99.90
55083;DHT22;40978;52.850;6.506;2023-10-31T07:06:36;10.00;99.90
55083;DHT22;40978;52.850;6.506;2023-10-31T07:09:02;10.00;99.90
55083;DHT22;40978;52.850;6.506;2023-10-31T07:11:31;10.00;99.90
55083;DHT22;40978;52.850;6.506;2023-10-31T07:14:01;10.00;99.90
55083;DHT22;40978;52.850;6.506;2023-10-31T07:16:28;10.10;99.90
55083;DHT22;40978;52.850;6.506;2023-10-31T07:18:54;10.00;99.90
55083;DHT22;40978;52.850;6.506;2023-10-31T07:21:20;10.00;99.90
55083;DHT22;40978;52.850;6.506;2023-10-31T07:23:46;10.10;99.90
55083;DHT22;40978;52.850;6.506;2023-10-31T07:26:12;10.10;99.90
55083;DHT22;40978;52.850;6.506;2023-10-31T07:28:37;10.20;99.90
55083;DHT22;40978;52.850;6.506;2023-10-31T07:31:04;10.20;99.90
55083;DHT22;40978;52.850;6.506;2023-10-31T07:33:30;10.20;99.90
55083;DHT22;40978;52.850;6.506;2023-10-31T07:35:56;10.30;99.90
55083;DHT22;40978;52.850;6.506;2023-10-31T07:38:21;10.40;99.90
55083;DHT22;40978;52.850;6.506;2023-10-31T07:40:47;10.40;99.90
55083;DHT22;40978;52.850;6.506;2023-10-31T07:43:15;10.40;99.90
55083;DHT22;40978;52.850;6.506;2023-10-31T07:45:41;10.50;99.90
55083;DHT22;40978;52.850;6.506;2023-10-31T07:48:07;10.50;99.90
55083;DHT22;40978;52.850;6.506;2023-10-31T07:50:33;10.50;99.90
55083;DHT22;40978;52.850;6.506;2023-10-31T07:52:59;10.60;99.90
55083;DHT22;40978;52.850;6.506;2023-10-31T07:55:25;10.60;99.90
55083;DHT22;40978;52.850;6.506;2023-10-31T07:57:50;10.60;99.90
55083;DHT22;40978;52.850;6.506;2023-10-31T08:00:16;10.70;99.90
55083;DHT22;40978;52.850;6.506;2023-10-31T08:02:42;10.70;99.90
55083;DHT22;40978;52.850;6.506;2023-10-31T08:05:09;10.70;99.90
55083;DHT22;40978;52.850;6.506;2023-10-31T08:07:35;10.70;99.90
55083;DHT22;40978;52.850;6.506;2023-10-31T08:10:01;10.70;99.90
55083;DHT22;40978;52.850;6.506;2023-10-31T08:12:29;10.70;99.90
55083;DHT22;40978;52.850;6.506;2023-10-31T08:14:55;10.90;99.90
55083;DHT22;40978;52.850;6.506;2023-10-31T08:17:21;10.90;99.90
55083;DHT22;40978;52.850;6.506;2023-10-31T08:19:46;11.10;99.90
55083;DHT22;40978;52.850;6.506;2023-10-31T08:22:13;11.60;99.90
55083;DHT22;40978;52.850;6.506;2023-10-31T08:24:39;11.90;99.90
55083;DHT22;40978;52.850;6.506;2023-10-31T08:27:05;12.00;99.90
55083;DHT22;40978;52.850;6.506;2023-10-31T08:29:31;12.10;99.90
55083;DHT22;40978;52.850;6.506;2023-10-31T08:31:57;12.10;99.90
55083;DHT22;40978;52.850;6.506;2023-10-31T08:34:22;12.00;99.90
55083;DHT22;40978;52.850;6.506;2023-10-31T08:36:48;12.20;99.90
55083;DHT22;40978;52.850;6.506;2023-10-31T08:39:14;12.40;99.90
55083;DHT22;40978;52.850;6.506;2023-10-31T08:41:53;12.50;99.90
55083;DHT22;40978;52.850;6.506;2023-10-31T08:44:19;12.50;99.90
55083;DHT22;40978;52.850;6.506;2023-10-31T08:46:45;12.60;99.90
55083;DHT22;40978;52.850;6.506;2023-10-31T08:49:11;12.80;99.90
55083;DHT22;40978;52.850;6.506;2023-10-31T08:51:37;12.90;99.90
55083;DHT22;40978;52.850;6.506;2023-10-31T08:54:03;12.80;99.90
55083;DHT22;40978;52.850;6.506;2023-10-31T08:56:29;12.80;99.90
55083;DHT22;40978;52.850;6.506;2023-10-31T08:58:54;12.70;99.90
55083;DHT22;40978;52.850;6.506;2023-10-31T09:01:20;12.70;99.90
55083;DHT22;40978;52.850;6.506;2023-10-31T09:03:46;12.80;99.90
55083;DHT22;40978;52.850;6.506;2023-10-31T09:06:12;13.00;99.90
55083;DHT22;40978;52.850;6.506;2023-10-31T09:08:38;13.60;99.90
55083;DHT22;40978;52.850;6.506;2023-10-31T09:11:05;14.40;99.90
55083;DHT22;40978;52.850;6.506;2023-10-31T09:13:31;15.40;99.90
55083;DHT22;40978;52.850;6.506;2023-10-31T09:15:59;16.20;99.90
55083;DHT22;40978;52.850;6.506;2023-10-31T09:18:25;16.80;99.90
55083;DHT22;40978;52.850;6.506;2023-10-31T09:20:51;17.20;99.90
55083;DHT22;40978;52.850;6.506;2023-10-31T09:23:16;16.90;99.90
55083;DHT22;40978;52.850;6.506;2023-10-31T09:25:43;16.60;99.90
55083;DHT22;40978;52.850;6.506;2023-10-31T09:28:09;16.40;99.90
55083;DHT22;40978;52.850;6.506;2023-10-31T09:30:34;15.90;99.90
55083;DHT22;40978;52.850;6.506;2023-10-31T09:33:00;15.30;99.90
55083;DHT22;40978;52.850;6.506;2023-10-31T09:35:26;14.90;99.90
55083;DHT22;40978;52.850;6.506;2023-10-31T09:37:53;14.70;99.90
55083;DHT22;40978;52.850;6.506;2023-10-31T09:40:18;14.60;99.90
55083;DHT22;40978;52.850;6.506;2023-10-31T09:42:45;14.40;99.90
55083;DHT22;40978;52.850;6.506;2023-10-31T09:45:14;14.00;99.90
55083;DHT22;40978;52.850;6.506;2023-10-31T09:47:40;13.60;99.90
55083;DHT22;40978;52.850;6.506;2023-10-31T09:50:07;13.20;99.90
55083;DHT22;40978;52.850;6.506;2023-10-31T09:52:38;12.80;99.90
55083;DHT22;40978;52.850;6.506;2023-10-31T09:55:04;12.50;99.90
55083;DHT22;40978;52.850;6.506;2023-10-31T09:57:31;12.30;99.90
55083;DHT22;40978;52.850;6.506;2023-10-31T09:59:57;12.20;99.90
55083;DHT22;40978;52.850;6.506;2023-10-31T10:02:22;12.00;99.90
55083;DHT22;40978;52.850;6.506;2023-10-31T10:04:48;11.90;99.90
55083;DHT22;40978;52.850;6.506;2023-10-31T10:07:19;11.80;99.90
55083;DHT22;40978;52.850;6.506;2023-10-31T10:09:46;11.80;99.90
55083;DHT22;40978;52.850;6.506;2023-10-31T10:12:13;11.70;99.90
55083;DHT22;40978;52.850;6.506;2023-10-31T10:14:42;11.70;99.90
55083;DHT22;40978;52.850;6.506;2023-10-31T10:17:19;11.70;99.90
55083;DHT22;40978;52.850;6.506;2023-10-31T10:19:45;11.70;99.90
55083;DHT22;40978;52.850;6.506;2023-10-31T10:22:11;11.70;99.90
55083;DHT22;40978;52.850;6.506;2023-10-31T10:24:41;11.60;99.90
55083;DHT22;40978;52.850;6.506;2023-10-31T10:27:08;11.50;99.90
55083;DHT22;40978;52.850;6.506;2023-10-31T10:29:34;11.40;99.90
55083;DHT22;40978;52.850;6.506;2023-10-31T10:32:00;11.40;99.90
55083;DHT22;40978;52.850;6.506;2023-10-31T10:34:26;11.40;99.90
55083;DHT22;40978;52.850;6.506;2023-10-31T10:36:53;11.20;99.90
55083;DHT22;40978;52.850;6.506;2023-10-31T10:39:22;11.10;99.90
55083;DHT22;40978;52.850;6.506;2023-10-31T10:41:53;11.00;99.90
55083;DHT22;40978;52.850;6.506;2023-10-31T10:44:26;11.00;99.90
55083;DHT22;40978;52.850;6.506;2023-10-31T10:46:55;11.00;99.90
55083;DHT22;40978;52.850;6.506;2023-10-31T10:49:24;11.00;99.90
55083;DHT22;40978;52.850;6.506;2023-10-31T10:51:59;11.00;99.90
55083;DHT22;40978;52.850;6.506;2023-10-31T10:57:36;11.20;99.90
55083;DHT22;40978;52.850;6.506;2023-10-31T11:00:05;11.30;99.90
55083;DHT22;40978;52.850;6.506;2023-10-31T11:02:36;11.40;99.90
55083;DHT22;40978;52.850;6.506;2023-10-31T11:05:04;11.50;99.90
55083;DHT22;40978;52.850;6.506;2023-10-31T11:07:31;11.60;99.90
55083;DHT22;40978;52.850;6.506;2023-10-31T11:09:58;11.60;99.90
55083;DHT22;40978;52.850;6.506;2023-10-31T11:12:29;11.70;99.90
55083;DHT22;40978;52.850;6.506;2023-10-31T11:14:57;11.80;99.90
55083;DHT22;40978;52.850;6.506;2023-10-31T11:17:32;11.80;99.90
55083;DHT22;40978;52.850;6.506;2023-10-31T11:20:00;11.80;99.90
55083;DHT22;40978;52.850;6.506;2023-10-31T11:22:40;11.90;99.90
55083;DHT22;40978;52.850;6.506;2023-10-31T11:25:10;12.00;99.90
55083;DHT22;40978;52.850;6.506;2023-10-31T11:27:36;12.00;99.90
55083;DHT22;40978;52.850;6.506;2023-10-31T11:30:26;12.10;99.90
55083;DHT22;40978;52.850;6.506;2023-10-31T11:32:54;12.00;99.90
55083;DHT22;40978;52.850;6.506;2023-10-31T11:35:21;12.00;99.90
55083;DHT22;40978;52.850;6.506;2023-10-31T11:38:04;12.00;99.90
55083;DHT22;40978;52.850;6.506;2023-10-31T11:40:32;12.10;99.90
55083;DHT22;40978;52.850;6.506;2023-10-31T11:42:58;12.10;99.90
55083;DHT22;40978;52.850;6.506;2023-10-31T11:45:41;12.00;99.90
55083;DHT22;40978;52.850;6.506;2023-10-31T11:48:09;12.00;99.90
55083;DHT22;40978;52.850;6.506;2023-10-31T11:50:37;12.00;99.90
55083;DHT22;40978;52.850;6.506;2023-10-31T11:53:08;11.90;99.90
55083;DHT22;40978;52.850;6.506;2023-10-31T11:55:35;11.80;99.90
55083;DHT22;40978;52.850;6.506;2023-10-31T11:58:20;11.80;99.90
55083;DHT22;40978;52.850;6.506;2023-10-31T12:00:48;11.70;99.90
55083;DHT22;40978;52.850;6.506;2023-10-31T12:03:17;11.60;99.90
55083;DHT22;40978;52.850;6.506;2023-10-31T12:05:59;11.60;99.90
55083;DHT22;40978;52.850;6.506;2023-10-31T12:08:29;11.60;99.90
55083;DHT22;40978;52.850;6.506;2023-10-31T12:11:15;11.60;99.90
55083;DHT22;40978;52.850;6.506;2023-10-31T12:13:59;11.60;99.90
55083;DHT22;40978;52.850;6.506;2023-10-31T12:16:33;11.60;99.90
55083;DHT22;40978;52.850;6.506;2023-10-31T12:19:03;11.60;99.90
55083;DHT22;40978;52.850;6.506;2023-10-31T12:21:39;11.60;99.90
55083;DHT22;40978;52.850;6.506;2023-10-31T12:24:08;11.50;99.90
55083;DHT22;40978;52.850;6.506;2023-10-31T12:26:37;11.50;99.90
55083;DHT22;40978;52.850;6.506;2023-10-31T12:31:56;11.50;99.90
55083;DHT22;40978;52.850;6.506;2023-10-31T12:34:23;11.50;99.90
55083;DHT22;40978;52.850;6.506;2023-10-31T12:36:51;11.60;99.90
55083;DHT22;40978;52.850;6.506;2023-10-31T12:39:20;11.50;99.90
55083;DHT22;40978;52.850;6.506;2023-10-31T12:41:47;11.50;99.90
55083;DHT22;40978;52.850;6.506;2023-10-31T12:44:17;11.50;99.90
55083;DHT22;40978;52.850;6.506;2023-10-31T12:46:43;11.60;99.90
55083;DHT22;40978;52.850;6.506;2023-10-31T12:49:13;11.70;99.90
55083;DHT22;40978;52.850;6.506;2023-10-31T12:52:02;11.70;99.90
55083;DHT22;40978;52.850;6.506;2023-10-31T12:54:36;11.60;99.90
55083;DHT22;40978;52.850;6.506;2023-10-31T12:57:03;11.60;99.90
55083;DHT22;40978;52.850;6.506;2023-10-31T12:59:30;11.50;99.90
55083;DHT22;40978;52.850;6.506;2023-10-31T13:01:56;11.50;99.90
55083;DHT22;40978;52.850;6.506;2023-10-31T13:04:32;11.40;99.90
55083;DHT22;40978;52.850;6.506;2023-10-31T13:07:00;11.40;99.90
55083;DHT22;40978;52.850;6.506;2023-10-31T13:09:30;11.40;99.90
55083;DHT22;40978;52.850;6.506;2023-10-31T13:12:04;11.30;99.90
55083;DHT22;40978;52.850;6.506;2023-10-31T13:14:31;11.30;99.90
55083;DHT22;40978;52.850;6.506;2023-10-31T13:16:57;11.40;99.90
55083;DHT22;40978;52.850;6.506;2023-10-31T13:19:22;11.40;99.90
55083;DHT22;40978;52.850;6.506;2023-10-31T13:21:48;11.40;99.90
55083;DHT22;40978;52.850;6.506;2023-10-31T13:24:14;11.40;99.90
55083;DHT22;40978;52.850;6.506;2023-10-31T13:26:41;11.50;99.90
55083;DHT22;40978;52.850;6.506;2023-10-31T13:29:07;11.40;99.90
55083;DHT22;40978;52.850;6.506;2023-10-31T13:31:32;11.50;99.90
55083;DHT22;40978;52.850;6.506;2023-10-31T13:33:58;11.50;99.90
55083;DHT22;40978;52.850;6.506;2023-10-31T13:36:24;11.50;99.90
55083;DHT22;40978;52.850;6.506;2023-10-31T13:38:49;11.50;99.90
55083;DHT22;40978;52.850;6.506;2023-10-31T13:41:15;11.40;99.90
55083;DHT22;40978;52.850;6.506;2023-10-31T13:43:41;11.30;99.90
55083;DHT22;40978;52.850;6.506;2023-10-31T13:46:06;11.20;99.90
55083;DHT22;40978;52.850;6.506;2023-10-31T13:48:32;11.20;99.90
55083;DHT22;40978;52.850;6.506;2023-10-31T13:50:58;11.10;99.90
55083;DHT22;40978;52.850;6.506;2023-10-31T13:53:24;11.10;99.90
55083;DHT22;40978;52.850;6.506;2023-10-31T13:55:49;11.00;99.90
55083;DHT22;40978;52.850;6.506;2023-10-31T13:58:15;10.90;99.90
55083;DHT22;40978;52.850;6.506;2023-10-31T14:00:43;10.90;99.90
55083;DHT22;40978;52.850;6.506;2023-10-31T14:03:11;10.90;99.90
55083;DHT22;40978;52.850;6.506;2023-10-31T14:05:36;11.00;99.90
55083;DHT22;40978;52.850;6.506;2023-10-31T14:08:02;10.90;99.90
55083;DHT22;40978;52.850;6.506;2023-10-31T14:10:28;10.90;99.90
55083;DHT22;40978;52.850;6.506;2023-10-31T14:12:56;10.90;99.90
55083;DHT22;40978;52.850;6.506;2023-10-31T14:15:22;10.80;99.90
55083;DHT22;40978;52.850;6.506;2023-10-31T14:17:50;10.80;99.90
55083;DHT22;40978;52.850;6.506;2023-10-31T14:20:15;10.70;99.90
55083;DHT22;40978;52.850;6.506;2023-10-31T14:22:47;10.70;99.90
55083;DHT22;40978;52.850;6.506;2023-10-31T14:25:13;10.80;99.90
55083;DHT22;40978;52.850;6.506;2023-10-31T14:27:38;10.70;99.90
55083;DHT22;40978;52.850;6.506;2023-10-31T14:30:05;10.70;99.90
55083;DHT22;40978;52.850;6.506;2023-10-31T14:32:31;10.70;99.90
55083;DHT22;40978;52.850;6.506;2023-10-31T14:34:56;10.70;99.90
55083;DHT22;40978;52.850;6.506;2023-10-31T14:37:22;10.70;99.90
55083;DHT22;40978;52.850;6.506;2023-10-31T14:43:48;10.60;99.90
55083;DHT22;40978;52.850;6.506;2023-10-31T14:54:06;10.60;99.90
55083;DHT22;40978;52.850;6.506;2023-10-31T14:57:00;10.60;99.90
55083;DHT22;40978;52.850;6.506;2023-10-31T14:59:26;10.60;99.90
55083;DHT22;40978;52.850;6.506;2023-10-31T15:02:06;10.60;99.90
55083;DHT22;40978;52.850;6.506;2023-10-31T15:04:49;10.60;99.90
55083;DHT22;40978;52.850;6.506;2023-10-31T15:07:15;10.60;99.90
55083;DHT22;40978;52.850;6.506;2023-10-31T15:09:41;10.60;99.90
55083;DHT22;40978;52.850;6.506;2023-10-31T15:12:07;10.60;99.90
55083;DHT22;40978;52.850;6.506;2023-10-31T15:14:33;10.60;99.90
55083;DHT22;40978;52.850;6.506;2023-10-31T15:16:59;10.60;99.90
55083;DHT22;40978;52.850;6.506;2023-10-31T15:19:24;10.60;99.90
55083;DHT22;40978;52.850;6.506;2023-10-31T15:21:50;10.60;99.90
55083;DHT22;40978;52.850;6.506;2023-10-31T15:24:15;10.60;99.90
55083;DHT22;40978;52.850;6.506;2023-10-31T15:26:41;10.50;99.90
55083;DHT22;40978;52.850;6.506;2023-10-31T15:29:07;10.60;99.90
55083;DHT22;40978;52.850;6.506;2023-10-31T15:31:33;10.50;99.90
55083;DHT22;40978;52.850;6.506;2023-10-31T15:33:58;10.60;99.90
55083;DHT22;40978;52.850;6.506;2023-10-31T15:36:24;10.50;99.90
55083;DHT22;40978;52.850;6.506;2023-10-31T15:38:50;10.50;99.90
55083;DHT22;40978;52.850;6.506;2023-10-31T15:41:16;10.50;99.90
55083;DHT22;40978;52.850;6.506;2023-10-31T15:43:42;10.50;99.90
55083;DHT22;40978;52.850;6.506;2023-10-31T15:46:07;10.40;99.90
55083;DHT22;40978;52.850;6.506;2023-10-31T15:48:33;10.40;99.90
55083;DHT22;40978;52.850;6.506;2023-10-31T15:50:59;10.40;99.90